createdAt,value
2018-08-04T00:00:47.628Z,12.27
2018-08-04T00:03:16.871Z,11.17
2018-08-04T00:05:45.947Z,13.03
2018-08-04T00:08:14.610Z,12.47
2018-08-04T00:10:43.881Z,12.00
2018-08-04T00:13:13.231Z,12.13
2018-08-04T00:15:41.948Z,12.70
2018-08-04T00:18:11.215Z,12.70
2018-08-04T00:20:40.352Z,13.00
2018-08-04T00:23:09.560Z,12.47
2018-08-04T00:25:38.811Z,12.73
2018-08-04T00:28:08.095Z,12.77
2018-08-04T00:30:37.309Z,12.97
2018-08-04T00:33:06.578Z,12.27
2018-08-04T00:35:35.828Z,13.17
2018-08-04T00:38:05.186Z,11.97
2018-08-04T00:40:34.572Z,12.50
2018-08-04T00:43:03.905Z,11.97
2018-08-04T00:45:33.128Z,13.67
2018-08-04T00:48:01.746Z,12.27
2018-08-04T00:50:30.961Z,12.50
2018-08-04T00:53:00.252Z,12.37
2018-08-04T00:55:29.566Z,11.40
2018-08-04T00:57:58.880Z,12.77
2018-08-04T01:00:28.186Z,11.53
2018-08-04T01:02:57.479Z,11.67
2018-08-04T01:05:26.751Z,12.23
2018-08-04T01:07:55.965Z,13.13
2018-08-04T01:10:25.089Z,12.17
2018-08-04T01:12:54.304Z,11.60
2018-08-04T01:15:23.527Z,12.37
2018-08-04T01:17:52.610Z,12.37
2018-08-04T01:20:21.886Z,12.13
2018-08-04T01:22:50.592Z,12.67
2018-08-04T01:25:19.395Z,12.73
2018-08-04T01:27:48.563Z,12.27
2018-08-04T01:30:17.263Z,13.10
2018-08-04T01:32:45.946Z,12.73
2018-08-04T01:35:14.726Z,12.07
2018-08-04T01:37:43.910Z,13.43
2018-08-04T01:40:13.212Z,11.40
2018-08-04T01:42:42.495Z,11.90
2018-08-04T01:45:11.806Z,12.20
2018-08-04T01:47:41.159Z,12.70
2018-08-04T01:50:10.406Z,11.40
2018-08-04T01:52:39.566Z,12.47
2018-08-04T01:55:08.807Z,12.23
2018-08-04T01:57:38.045Z,13.40
2018-08-04T02:00:07.521Z,12.77
2018-08-04T02:02:36.825Z,11.97
2018-08-04T02:05:05.520Z,13.77
2018-08-04T02:07:34.419Z,12.50
2018-08-04T02:10:03.105Z,12.47
2018-08-04T02:12:31.917Z,11.27
2018-08-04T02:15:01.199Z,12.10
2018-08-04T02:17:30.504Z,12.50
2018-08-04T02:19:59.751Z,12.00
2018-08-04T02:22:28.856Z,12.73
2018-08-04T02:24:58.091Z,12.40
2018-08-04T02:27:27.200Z,13.13
2018-08-04T02:29:56.527Z,12.93
2018-08-04T02:32:25.754Z,12.07
2018-08-04T02:34:55.057Z,12.07
2018-08-04T02:37:24.335Z,12.60
2018-08-04T02:39:53.548Z,13.67
2018-08-04T02:42:22.786Z,12.90
2018-08-04T02:44:52.047Z,12.13
2018-08-04T02:47:21.318Z,11.87
2018-08-04T02:49:50.561Z,11.90
2018-08-04T02:52:19.845Z,12.07
2018-08-04T02:54:49.146Z,12.30
2018-08-04T02:57:18.440Z,13.33
2018-08-04T02:59:47.749Z,11.90
2018-08-04T03:02:16.953Z,13.17
2018-08-04T03:04:46.237Z,12.90
2018-08-04T03:07:15.527Z,13.33
2018-08-04T03:09:44.741Z,12.53
2018-08-04T03:12:14.024Z,12.53
2018-08-04T03:14:43.251Z,13.27
2018-08-04T03:17:12.469Z,12.50
2018-08-04T03:19:41.211Z,11.77
2018-08-04T03:22:10.408Z,11.57
2018-08-04T03:24:39.671Z,12.90
2018-08-04T03:27:08.906Z,13.30
2018-08-04T03:29:38.147Z,12.90
2018-08-04T03:32:07.978Z,11.83
2018-08-04T03:34:37.231Z,12.97
2018-08-04T03:37:06.512Z,13.40
2018-08-04T03:39:35.834Z,12.40
2018-08-04T03:42:05.176Z,12.23
2018-08-04T03:44:34.371Z,12.07
2018-08-04T03:47:03.112Z,12.23
2018-08-04T03:49:32.398Z,12.60
2018-08-04T03:52:01.719Z,12.07
2018-08-04T03:54:30.940Z,12.63
2018-08-04T03:57:00.137Z,11.50
2018-08-04T03:59:29.612Z,13.57
2018-08-04T04:01:58.988Z,12.37
2018-08-04T04:04:28.211Z,12.87
2018-08-04T04:06:57.558Z,13.37
2018-08-04T04:09:26.917Z,12.60
2018-08-04T04:11:56.226Z,12.80
2018-08-04T04:14:25.525Z,11.17
2018-08-04T04:16:54.728Z,12.80
2018-08-04T04:19:23.987Z,13.07
2018-08-04T04:21:53.312Z,12.43
2018-08-04T04:24:22.581Z,13.57
2018-08-04T04:26:51.812Z,12.00
2018-08-04T04:29:21.070Z,12.23
2018-08-04T04:31:50.248Z,12.73
2018-08-04T04:34:31.457Z,12.37
2018-08-04T04:37:00.752Z,12.07
2018-08-04T04:39:30.022Z,13.77
2018-08-04T04:41:59.326Z,14.73
2018-08-04T04:44:28.544Z,14.10
2018-08-04T04:46:57.244Z,12.47
2018-08-04T04:49:26.393Z,12.13
2018-08-04T04:51:55.576Z,13.37
2018-08-04T04:54:24.830Z,13.03
2018-08-04T04:56:54.052Z,14.33
2018-08-04T04:59:23.326Z,13.87
2018-08-04T05:01:52.079Z,13.20
2018-08-04T05:04:21.489Z,13.70
2018-08-04T05:06:50.742Z,14.03
2018-08-04T05:09:20.069Z,13.17
2018-08-04T05:11:49.421Z,13.40
2018-08-04T05:14:18.240Z,13.87
2018-08-04T05:16:47.523Z,14.00
2018-08-04T05:19:16.828Z,14.13
2018-08-04T05:21:46.627Z,15.50
2018-08-04T05:24:15.805Z,14.67
2018-08-04T05:26:45.053Z,13.47
2018-08-04T05:29:14.686Z,13.57
2018-08-04T05:31:44.185Z,14.20
2018-08-04T05:34:13.684Z,13.23
2018-08-04T05:36:43.060Z,14.43
2018-08-04T05:39:13.540Z,13.83
2018-08-04T05:41:42.861Z,13.93
2018-08-04T05:44:11.646Z,14.07
2018-08-04T05:46:40.903Z,14.23
2018-08-04T05:49:10.216Z,14.20
2018-08-04T05:51:39.474Z,14.83
2018-08-04T05:54:08.730Z,14.50
2018-08-04T05:56:37.995Z,14.37
2018-08-04T05:59:07.395Z,14.60
2018-08-04T06:01:36.716Z,15.67
2018-08-04T06:04:06.150Z,14.80
2018-08-04T06:06:35.467Z,14.00
2018-08-04T06:09:06.141Z,14.63
2018-08-04T06:11:35.570Z,15.27
2018-08-04T06:14:04.968Z,15.23
2018-08-04T06:16:34.922Z,14.53
2018-08-04T06:19:03.671Z,14.20
2018-08-04T06:21:32.893Z,14.83
2018-08-04T06:24:02.122Z,14.07
2018-08-04T06:26:31.409Z,13.63
2018-08-04T06:29:00.635Z,14.83
2018-08-04T06:31:29.814Z,14.87
2018-08-04T06:33:59.136Z,14.77
2018-08-04T06:36:28.332Z,15.23
2018-08-04T06:38:57.586Z,14.77
2018-08-04T06:41:26.779Z,13.47
2018-08-04T06:43:56.268Z,13.13
2018-08-04T06:46:25.530Z,14.03
2018-08-04T06:48:55.068Z,13.67
2018-08-04T06:51:24.366Z,14.17
2018-08-04T06:53:53.600Z,12.10
2018-08-04T06:56:22.906Z,12.90
2018-08-04T06:58:51.720Z,12.53
2018-08-04T07:01:21.013Z,12.73
2018-08-04T07:03:50.280Z,12.40
2018-08-04T07:06:19.548Z,12.40
2018-08-04T07:08:48.855Z,11.30
2018-08-04T07:11:18.085Z,11.23
2018-08-04T07:13:47.264Z,10.97
2018-08-04T07:16:16.498Z,12.40
2018-08-04T07:18:45.322Z,11.70
2018-08-04T07:21:14.607Z,10.53
2018-08-04T07:23:43.805Z,11.40
2018-08-04T07:26:13.004Z,10.80
2018-08-04T07:28:42.694Z,9.60
2018-08-04T07:31:12.020Z,10.40
2018-08-04T07:33:41.297Z,10.03
2018-08-04T07:36:10.603Z,10.07
2018-08-04T07:38:39.379Z,10.07
2018-08-04T07:41:08.711Z,10.43
2018-08-04T07:43:38.105Z,10.43
2018-08-04T07:46:07.446Z,10.60
2018-08-04T07:48:36.740Z,11.07
2018-08-04T07:51:06.053Z,11.57
2018-08-04T07:53:35.336Z,11.47
2018-08-04T07:56:04.601Z,11.63
2018-08-04T07:58:33.346Z,12.67
2018-08-04T08:01:02.612Z,11.63
2018-08-04T08:03:31.865Z,11.83
2018-08-04T08:06:01.120Z,11.43
2018-08-04T08:08:30.409Z,10.73
2018-08-04T08:10:59.690Z,11.40
2018-08-04T08:13:28.903Z,13.17
2018-08-04T08:15:58.166Z,11.63
2018-08-04T08:18:27.414Z,13.73
2018-08-04T08:20:56.666Z,11.40
2018-08-04T08:23:25.955Z,10.93
2018-08-04T08:26:10.966Z,12.00
2018-08-04T08:28:41.319Z,10.80
2018-08-04T08:31:10.591Z,9.90
2018-08-04T08:33:40.751Z,11.37
2018-08-04T08:36:10.529Z,11.43
2018-08-04T08:38:39.793Z,11.67
2018-08-04T08:41:09.106Z,11.63
2018-08-04T08:43:38.447Z,10.30
2018-08-04T08:46:07.806Z,11.10
2018-08-04T08:48:37.083Z,10.13
2018-08-04T08:51:06.374Z,10.83
2018-08-04T08:53:35.702Z,10.67
2018-08-04T08:56:05.162Z,10.80
2018-08-04T08:58:34.419Z,11.50
2018-08-04T09:01:03.777Z,11.13
2018-08-04T09:03:33.036Z,11.10
2018-08-04T09:06:02.319Z,10.60
2018-08-04T09:08:31.545Z,9.53
2018-08-04T09:11:00.869Z,10.30
2018-08-04T09:13:30.220Z,10.10
2018-08-04T09:15:59.492Z,10.50
2018-08-04T09:18:28.837Z,9.43
2018-08-04T09:20:57.652Z,9.43
2018-08-04T09:23:26.904Z,10.13
2018-08-04T09:25:56.148Z,8.93
2018-08-04T09:28:25.314Z,8.67
2018-08-04T09:30:54.567Z,8.90
2018-08-04T09:33:23.880Z,8.73
2018-08-04T09:35:53.265Z,8.47
2018-08-04T09:38:22.556Z,9.43
2018-08-04T09:40:51.934Z,9.23
2018-08-04T09:43:21.180Z,8.93
2018-08-04T09:45:50.506Z,9.63
2018-08-04T09:48:19.886Z,8.87
2018-08-04T09:50:49.287Z,10.70
2018-08-04T09:53:18.531Z,8.87
2018-08-04T09:55:47.931Z,8.60
2018-08-04T09:58:17.286Z,8.30
2018-08-04T10:00:51.637Z,9.30
2018-08-04T10:03:20.891Z,9.33
2018-08-04T10:05:50.194Z,8.33
2018-08-04T10:08:19.506Z,8.43
2018-08-04T10:10:48.862Z,7.73
2018-08-04T10:13:17.645Z,8.80
2018-08-04T10:15:46.829Z,7.97
2018-08-04T10:18:16.078Z,10.13
2018-08-04T10:20:45.346Z,8.33
2018-08-04T10:23:14.587Z,7.45
2018-08-04T10:25:43.861Z,16.62
2018-08-04T10:28:12.637Z,13.22
2018-08-04T10:30:41.858Z,8.78
2018-08-04T10:33:11.094Z,8.73
2018-08-04T10:35:40.364Z,8.28
2018-08-04T10:38:09.697Z,7.60
2018-08-04T10:40:38.884Z,8.13
2018-08-04T10:43:08.149Z,7.58
2018-08-04T10:45:37.358Z,8.10
2018-08-04T10:48:06.702Z,7.62
2018-08-04T10:50:36.006Z,7.47
2018-08-04T10:53:05.253Z,7.62
2018-08-04T10:55:34.538Z,7.72
2018-08-04T10:58:03.891Z,7.75
2018-08-04T11:00:33.198Z,7.65
2018-08-04T11:03:02.559Z,6.92
2018-08-04T11:05:31.803Z,7.35
2018-08-04T11:08:01.154Z,7.40
2018-08-04T11:10:30.444Z,7.90
2018-08-04T11:12:59.811Z,6.70
2018-08-04T11:15:29.137Z,7.17
2018-08-04T11:17:58.442Z,6.78
2018-08-04T11:20:27.726Z,6.78
2018-08-04T11:22:57.060Z,7.03
2018-08-04T11:25:26.336Z,6.92
2018-08-04T11:27:55.614Z,6.58
2018-08-04T11:30:24.940Z,8.63
2018-08-04T11:32:54.158Z,7.30
2018-08-04T11:35:23.463Z,6.72
2018-08-04T11:37:52.834Z,6.60
2018-08-04T11:40:22.180Z,6.22
2018-08-04T11:42:50.949Z,6.37
2018-08-04T11:45:20.164Z,5.75
2018-08-04T11:47:49.411Z,6.40
2018-08-04T11:50:18.676Z,6.50
2018-08-04T11:52:48.078Z,6.67
2018-08-04T11:55:16.970Z,6.58
2018-08-04T11:57:45.760Z,6.05
2018-08-04T12:00:15.035Z,6.42
2018-08-04T12:02:44.348Z,11.93
2018-08-04T12:05:13.176Z,6.45
2018-08-04T12:07:42.519Z,5.83
2018-08-04T12:10:11.737Z,5.85
2018-08-04T12:12:40.672Z,6.25
2018-08-04T12:15:09.956Z,5.95
2018-08-04T12:17:39.337Z,5.42
2018-08-04T12:20:08.622Z,5.97
2018-08-04T12:22:37.926Z,6.62
2018-08-04T12:25:07.324Z,6.65
2018-08-04T12:27:36.695Z,6.12
2018-08-04T12:30:07.321Z,6.45
2018-08-04T12:32:36.821Z,5.97
2018-08-04T12:35:06.406Z,5.70
2018-08-04T12:37:35.717Z,6.08
2018-08-04T12:40:05.115Z,6.10
2018-08-04T12:42:34.540Z,6.37
2018-08-04T12:45:04.166Z,7.28
2018-08-04T12:47:33.484Z,6.17
2018-08-04T12:50:02.721Z,10.43
2018-08-04T12:52:31.476Z,6.12
2018-08-04T12:55:00.803Z,6.47
2018-08-04T12:57:30.217Z,8.78
2018-08-04T12:59:59.466Z,6.65
2018-08-04T13:02:28.844Z,8.48
2018-08-04T13:04:58.179Z,6.50
2018-08-04T13:07:28.465Z,8.08
2018-08-04T13:09:57.807Z,6.10
2018-08-04T13:12:27.076Z,5.78
2018-08-04T13:14:56.412Z,5.85
2018-08-04T13:17:25.900Z,5.85
2018-08-04T13:19:55.690Z,6.72
2018-08-04T13:22:25.101Z,5.12
2018-08-04T13:24:54.606Z,5.80
2018-08-04T13:27:23.898Z,8.43
2018-08-04T13:29:53.127Z,6.67
2018-08-04T13:32:22.324Z,5.83
2018-08-04T13:34:51.506Z,6.03
2018-08-04T13:37:20.740Z,7.70
2018-08-04T13:39:50.030Z,5.87
2018-08-04T13:42:19.161Z,8.00
2018-08-04T13:44:48.439Z,9.45
2018-08-04T13:47:17.647Z,6.40
2018-08-04T13:49:46.867Z,6.17
2018-08-04T13:52:16.119Z,7.75
2018-08-04T13:54:47.485Z,5.70
2018-08-04T13:57:17.067Z,6.33
2018-08-04T13:59:46.397Z,6.00
2018-08-04T14:02:15.703Z,6.67
2018-08-04T14:04:45.008Z,10.38
2018-08-04T14:07:14.234Z,9.80
2018-08-04T14:09:43.613Z,5.85
2018-08-04T14:12:13.008Z,5.67
2018-08-04T14:14:42.405Z,6.95
2018-08-04T14:17:11.645Z,6.15
2018-08-04T14:19:40.389Z,14.20
2018-08-04T14:22:09.617Z,7.92
2018-08-04T14:24:38.237Z,6.12
2018-08-04T14:27:07.519Z,7.83
2018-08-04T14:29:36.212Z,5.67
2018-08-04T14:32:05.435Z,6.87
2018-08-04T14:34:34.786Z,7.55
2018-08-04T14:37:03.989Z,8.88
2018-08-04T14:39:33.221Z,5.62
2018-08-04T14:42:02.464Z,6.12
2018-08-04T14:44:31.665Z,5.70
2018-08-04T14:47:00.780Z,6.08
2018-08-04T14:49:30.004Z,5.85
2018-08-04T14:51:59.182Z,5.58
2018-08-04T14:54:28.438Z,5.70
2018-08-04T14:56:57.622Z,5.55
2018-08-04T14:59:26.730Z,5.80
2018-08-04T15:01:55.890Z,5.72
2018-08-04T15:04:24.650Z,5.35
2018-08-04T15:06:53.834Z,5.50
2018-08-04T15:09:23.033Z,5.37
2018-08-04T15:11:52.262Z,5.47
2018-08-04T15:14:21.484Z,5.80
2018-08-04T15:16:50.746Z,5.78
2018-08-04T15:19:19.949Z,5.58
2018-08-04T15:21:49.126Z,5.67
2018-08-04T15:24:18.393Z,6.00
2018-08-04T15:26:47.645Z,5.58
2018-08-04T15:29:16.846Z,5.70
2018-08-04T15:31:45.986Z,6.35
2018-08-04T15:34:15.275Z,5.08
2018-08-04T15:36:44.375Z,5.85
2018-08-04T15:39:13.585Z,5.30
2018-08-04T15:41:42.806Z,5.42
2018-08-04T15:44:12.096Z,5.70
2018-08-04T15:46:41.416Z,6.15
2018-08-04T15:49:10.706Z,5.62
2018-08-04T15:51:39.961Z,6.08
2018-08-04T15:54:08.760Z,5.65
2018-08-04T15:56:37.954Z,5.55
2018-08-04T15:59:07.238Z,6.37
2018-08-04T16:01:36.434Z,5.97
2018-08-04T16:04:05.598Z,5.50
2018-08-04T16:06:34.866Z,5.78
2018-08-04T16:09:04.422Z,5.85
2018-08-04T16:11:33.669Z,5.95
2018-08-04T16:14:02.871Z,6.17
2018-08-04T16:16:32.175Z,5.85
2018-08-04T16:19:01.595Z,6.12
2018-08-04T16:21:30.786Z,6.60
2018-08-04T16:24:00.010Z,5.83
2018-08-04T16:26:30.723Z,6.37
2018-08-04T16:29:00.083Z,6.77
2018-08-04T16:31:29.484Z,6.60
2018-08-04T16:33:58.780Z,7.30
2018-08-04T16:36:28.058Z,6.17
2018-08-04T16:38:57.314Z,6.40
2018-08-04T16:41:28.640Z,6.20
2018-08-04T16:43:58.131Z,6.63
2018-08-04T16:46:27.246Z,6.37
2018-08-04T16:48:55.981Z,6.83
2018-08-04T16:51:25.185Z,6.30
2018-08-04T16:53:54.406Z,6.20
2018-08-04T16:56:24.120Z,6.90
2018-08-04T16:58:53.546Z,6.70
2018-08-04T17:01:22.281Z,6.10
2018-08-04T17:03:51.496Z,6.10
2018-08-04T17:06:20.790Z,6.20
2018-08-04T17:08:50.011Z,7.43
2018-08-04T17:11:19.266Z,7.30
2018-08-04T17:13:48.445Z,7.07
2018-08-04T17:16:17.141Z,5.70
2018-08-04T17:18:46.325Z,7.17
2018-08-04T17:21:15.587Z,6.57
2018-08-04T17:23:45.101Z,6.60
2018-08-04T17:26:14.446Z,6.43
2018-08-04T17:28:43.716Z,6.43
2018-08-04T17:31:12.978Z,7.00
2018-08-04T17:33:42.249Z,6.43
2018-08-04T17:36:11.380Z,6.83
2018-08-04T17:38:40.566Z,6.37
2018-08-04T17:41:09.786Z,6.37
2018-08-04T17:43:38.978Z,7.03
2018-08-04T17:46:08.423Z,7.00
2018-08-04T17:48:37.216Z,6.37
2018-08-04T17:51:06.563Z,6.60
2018-08-04T17:53:35.861Z,6.53
2018-08-04T17:56:05.174Z,6.87
2018-08-04T17:58:34.510Z,6.73
2018-08-04T18:01:03.861Z,7.50
2018-08-04T18:03:33.117Z,7.30
2018-08-04T18:06:02.323Z,7.13
2018-08-04T18:08:31.567Z,6.80
2018-08-04T18:11:00.776Z,7.07
2018-08-04T18:13:30.089Z,6.77
2018-08-04T18:15:59.307Z,6.87
2018-08-04T18:18:28.509Z,7.33
2018-08-04T18:20:57.686Z,7.13
2018-08-04T18:23:27.026Z,6.63
2018-08-04T18:25:56.286Z,7.67
2018-08-04T18:28:25.570Z,6.37
2018-08-04T18:30:54.878Z,6.97
2018-08-04T18:33:24.199Z,6.53
2018-08-04T18:35:53.472Z,7.20
2018-08-04T18:38:22.848Z,6.63
2018-08-04T18:40:52.132Z,7.03
2018-08-04T18:43:20.940Z,6.30
2018-08-04T18:45:50.228Z,7.17
2018-08-04T18:48:19.548Z,6.43
2018-08-04T18:50:48.772Z,6.47
2018-08-04T18:53:18.046Z,7.10
2018-08-04T18:55:47.293Z,7.53
2018-08-04T18:58:16.525Z,7.20
2018-08-04T19:00:45.802Z,6.73
2018-08-04T19:03:15.043Z,7.23
2018-08-04T19:05:45.525Z,7.23
2018-08-04T19:08:14.829Z,6.67
2018-08-04T19:10:44.026Z,6.73
2018-08-04T19:13:13.256Z,7.23
2018-08-04T19:15:42.489Z,7.40
2018-08-04T19:18:11.779Z,7.60
2018-08-04T19:20:41.095Z,6.70
2018-08-04T19:23:10.329Z,7.00
2018-08-04T19:25:39.506Z,7.60
2018-08-04T19:28:08.632Z,7.07
2018-08-04T19:30:37.860Z,7.53
2018-08-04T19:33:07.098Z,7.40
2018-08-04T19:35:36.372Z,7.57
2018-08-04T19:38:05.687Z,7.53
2018-08-04T19:40:34.840Z,7.33
2018-08-04T19:43:03.643Z,6.67
2018-08-04T19:45:32.949Z,7.67
2018-08-04T19:48:02.082Z,7.50
2018-08-04T19:50:31.320Z,7.50
2018-08-04T19:53:00.610Z,7.77
2018-08-04T19:55:29.847Z,6.47
2018-08-04T19:57:59.147Z,7.23
2018-08-04T20:00:28.388Z,7.60
2018-08-04T20:03:04.212Z,7.17
2018-08-04T20:05:33.449Z,7.10
2018-08-04T20:08:02.767Z,7.13
2018-08-04T20:10:32.072Z,7.80
2018-08-04T20:13:01.275Z,7.13
2018-08-04T20:15:30.499Z,7.77
2018-08-04T20:17:59.766Z,7.20
2018-08-04T20:20:29.012Z,7.30
2018-08-04T20:22:58.266Z,6.83
2018-08-04T20:25:27.443Z,7.53
2018-08-04T20:27:56.726Z,7.63
2018-08-04T20:30:26.140Z,7.33
2018-08-04T20:32:55.446Z,7.77
2018-08-04T20:35:24.775Z,7.37
2018-08-04T20:37:53.523Z,7.33
2018-08-04T20:40:22.846Z,7.53
2018-08-04T20:42:52.009Z,7.37
2018-08-04T20:45:21.159Z,7.23
2018-08-04T20:47:49.951Z,7.07
2018-08-04T20:50:19.083Z,7.50
2018-08-04T20:52:48.364Z,6.83
2018-08-04T20:55:17.467Z,7.83
2018-08-04T20:57:46.667Z,7.30
2018-08-04T21:00:15.865Z,7.77
2018-08-04T21:02:46.468Z,7.20
2018-08-04T21:05:17.214Z,8.10
2018-08-04T21:07:48.144Z,7.60
2018-08-04T21:10:17.488Z,7.57
2018-08-04T21:12:46.792Z,7.67
2018-08-04T21:15:15.978Z,8.00
2018-08-04T21:17:45.092Z,8.03
2018-08-04T21:20:14.353Z,7.27
2018-08-04T21:22:43.090Z,7.93
2018-08-04T21:25:12.191Z,7.43
2018-08-04T21:27:41.511Z,7.70
2018-08-04T21:30:10.719Z,7.90
2018-08-04T21:32:39.384Z,8.03
2018-08-04T21:35:08.706Z,8.23
2018-08-04T21:37:37.870Z,8.20
2018-08-04T21:40:07.484Z,7.80
2018-08-04T21:42:36.835Z,8.20
2018-08-04T21:45:06.265Z,7.90
2018-08-04T21:47:35.415Z,8.33
2018-08-04T21:50:04.759Z,7.57
2018-08-04T21:52:33.951Z,8.20
2018-08-04T21:55:03.164Z,7.90
2018-08-04T21:57:32.317Z,7.73
2018-08-04T22:00:01.580Z,8.47
2018-08-04T22:02:32.700Z,9.07
2018-08-04T22:05:01.881Z,8.73
2018-08-04T22:07:43.884Z,8.30
2018-08-04T22:10:13.559Z,8.30
2018-08-04T22:12:43.433Z,8.10
2018-08-04T22:15:13.885Z,7.80
2018-08-04T22:17:43.125Z,8.53
2018-08-04T22:20:13.393Z,8.80
2018-08-04T22:22:43.441Z,8.77
2018-08-04T22:25:16.916Z,8.37
2018-08-04T22:27:46.346Z,9.07
2018-08-04T22:30:16.909Z,9.10
2018-08-04T22:32:46.826Z,8.13
2018-08-04T22:35:16.168Z,8.60
2018-08-04T22:37:45.659Z,8.80
2018-08-04T22:40:15.666Z,9.10
2018-08-04T22:42:45.294Z,9.00
2018-08-04T22:46:11.208Z,8.33
2018-08-04T22:48:40.886Z,8.10
2018-08-04T22:51:10.386Z,9.07
2018-08-04T22:53:39.656Z,9.43
2018-08-04T22:56:08.848Z,9.67
2018-08-04T22:58:38.179Z,9.60
2018-08-04T23:01:08.529Z,9.87
2018-08-04T23:03:37.917Z,9.67
2018-08-04T23:06:07.195Z,9.30
2018-08-04T23:08:36.484Z,10.10
2018-08-04T23:11:05.826Z,9.33
2018-08-04T23:13:35.070Z,9.83
2018-08-04T23:16:04.362Z,10.07
2018-08-04T23:18:33.548Z,10.33
2018-08-04T23:21:02.805Z,9.70
2018-08-04T23:23:32.084Z,10.50
2018-08-04T23:26:01.371Z,10.53
2018-08-04T23:28:30.582Z,10.67
2018-08-04T23:30:59.819Z,10.70
2018-08-04T23:33:30.641Z,11.00
2018-08-04T23:35:59.936Z,11.27
2018-08-04T23:38:28.663Z,10.63
2018-08-04T23:40:57.929Z,10.37
2018-08-04T23:43:27.205Z,11.10
2018-08-04T23:45:56.591Z,11.27
2018-08-04T23:48:25.819Z,10.27
2018-08-04T23:50:55.093Z,10.57
2018-08-04T23:53:24.314Z,11.23
2018-08-04T23:55:53.086Z,11.23
2018-08-04T23:58:22.350Z,11.00
